Aeroporto :
LOGIN :

Iscrizione | Disclaimer

   EN    FR    IT 

 










Sommario :    VFR   VFR Marginale   IFR   IFR Intensivo   IFR Molto Intensivo
Visibilità : 
Base nubi : 
>= 8 km
>= 3000ft
5 / 8 km
1000 / 3000 ft
1500m / 5 km
500 / 1000 ft
800 / 1500m
200 / 500 ft
< 800m
< 200 ft
Simboli :   Temporali  Nebbia  Neve Forte  Precipitazioni Forti  Vento > 20 kt
SIGMETs :   Varie  Temporali  Ghiacco  Turbolenza  Onda orograficha  Ceneri Vulcaniche






- Altitudine del aeroporto : 63 ft
- Codice IATA : BZM


EHWO - Woensdrecht Airbase

ULTIMO METAR :
  • 162255Z AUTO 07005KT 7000 BR OVC088 20/18 Q1010 WHT

METARs OBSOLETI :
  • 162250Z AUTO 06004KT 8000 BR OVC088 20/18 Q1010 BLU
  • 162235Z AUTO 07005KT 8000 BR BKN088 OVC094 20/18 Q1010 BLU
  • 162225Z AUTO 08005KT 8000 BR BKN092 OVC097 20/18 Q1010 BLU
  • 162155Z AUTO 07005KT 030V090 9999 BKN093 OVC099 20/18 Q1010 BLU
  • 162125Z AUTO 06003KT 9999 OVC100 20/17 Q1010 BLU
  • 162055Z AUTO 05003KT 360V060 9999 BKN160 OVC220 20/17 Q1009 BLU
  • 162025Z AUTO 06004KT 350V070 9999 OVC150 20/17 Q1009 BLU

Previsioni scadute.



MetMap, La meteo Aeronautica in un colpo d'occhio ! - Copyright ORBIFLY Dicembre 2007 - Disclaimer

ORBIFLY MET'MAP TEAM :

Programmazione e sviluppo : Alexandra Zaïnal
Concezione : Baudouin d'Aumeries
Supporto tecnico e logistico : Manuel Goepfert
Aiuto : Marc-Olivier Méhu
Aiuto per la traduzione : Arnaldo La Scala




FONTI E CREDITI :

   NOAA